TAF Text Data
IDs:
Format:
Raw Decoded Include METAR

Data at: 2103 UTC 01 Dec 2021

KSRQ 011739Z 0118/0218 09007KT P6SM SCT050 SCT250
  FM012000 26007KT P6SM SCT050 SCT250
  FM020000 VRB03KT P6SM FEW250
  FM021500 01007KT P6SM SKC